Time;durP1;ratioP1;P1;durP2;ratioP2;P2;SDS_P1;SDS_P2;PMS_P1;PMS_P2;Temp;Humidity;BMP_temperature;BMP_pressure;BME280_temperature;BME280_humidity;BME280_pressure;Samples;Min_cycle;Max_cycle;Signal;HPM_P1;HPM_P2
2023/03/15 00:02:06;;;;;;;;;;;2.90;99.90;;;;;;8368117;28;20272;-71
2023/03/15 00:06:07;;;;;;;;;;;2.90;99.90;;;;;;8370293;28;19925;-71
2023/03/15 00:10:09;;;;;;;;;;;2.90;99.90;;;;;;8388819;28;19931;-71
2023/03/15 00:14:11;;;;;;;;;;;2.90;99.90;;;;;;8379392;28;19935;-71
2023/03/15 00:18:13;;;;;;;;;;;2.90;99.90;;;;;;8384197;28;20011;-71
2023/03/15 00:22:15;;;;;;;;;;;2.80;99.90;;;;;;8396486;28;19933;-71
2023/03/15 00:26:16;;;;;;;;;;;2.80;99.90;;;;;;8371895;28;19928;-71
2023/03/15 00:30:18;;;;;;;;;;;2.80;99.90;;;;;;8392620;28;19924;-71
2023/03/15 00:34:23;;;;;;;;;;;2.80;99.90;;;;;;8392602;28;19925;-70
2023/03/15 00:38:25;;;;;;;;;;;2.70;99.90;;;;;;8389699;28;19935;-71
2023/03/15 00:42:27;;;;;;;;;;;2.60;99.90;;;;;;8357623;28;20277;-71
2023/03/15 00:46:29;;;;;;;;;;;2.50;99.90;;;;;;8390373;28;19938;-71
2023/03/15 00:50:30;;;;;;;;;;;2.50;99.90;;;;;;8395437;28;19925;-71
2023/03/15 00:54:32;;;;;;;;;;;2.40;99.90;;;;;;8376450;28;19931;-71
2023/03/15 00:58:34;;;;;;;;;;;2.40;99.90;;;;;;8383393;28;19959;-71
2023/03/15 01:02:36;;;;;;;;;;;2.30;99.90;;;;;;8387589;28;19928;-71
2023/03/15 01:06:41;;;;;;;;;;;2.40;99.90;;;;;;8363253;28;20321;-71
2023/03/15 01:10:42;;;;;;;;;;;2.30;99.90;;;;;;8362980;28;19928;-71
2023/03/15 01:14:44;;;;;;;;;;;2.30;99.90;;;;;;8388692;28;19984;-71
2023/03/15 01:18:46;;;;;;;;;;;2.40;99.90;;;;;;8386715;28;19924;-71
2023/03/15 01:22:48;;;;;;;;;;;2.40;99.90;;;;;;8400204;28;19939;-71
2023/03/15 01:26:49;;;;;;;;;;;2.40;99.90;;;;;;8384224;28;19932;-71
2023/03/15 01:30:51;;;;;;;;;;;2.50;99.90;;;;;;8388047;28;19947;-71
2023/03/15 01:34:53;;;;;;;;;;;2.50;99.90;;;;;;8373863;28;20008;-71
2023/03/15 01:38:54;;;;;;;;;;;2.50;99.90;;;;;;8391350;28;19955;-71
2023/03/15 01:43:02;;;;;;;;;;;2.50;99.90;;;;;;8377220;28;20010;-71
2023/03/15 01:47:04;;;;;;;;;;;2.50;99.90;;;;;;8397364;28;19925;-71
2023/03/15 01:51:08;;;;;;;;;;;2.50;99.90;;;;;;8386278;28;20329;-71
2023/03/15 01:55:11;;;;;;;;;;;2.50;99.90;;;;;;8390550;28;19925;-71
2023/03/15 01:59:15;;;;;;;;;;;2.50;99.90;;;;;;8390613;28;19924;-71
2023/03/15 02:03:19;;;;;;;;;;;2.50;99.90;;;;;;8387136;28;19924;-71
2023/03/15 02:07:22;;;;;;;;;;;2.60;99.90;;;;;;8385057;28;20376;-71
2023/03/15 02:11:25;;;;;;;;;;;2.60;99.90;;;;;;8390504;28;20361;-71
2023/03/15 02:15:26;;;;;;;;;;;2.60;99.90;;;;;;8397676;28;20392;-72
2023/03/15 02:19:48;;;;;;;;;;;2.60;99.90;;;;;;8392787;28;20277;-71
2023/03/15 02:24:00;;;;;;;;;;;2.50;99.90;;;;;;8391926;28;19931;-71
2023/03/15 02:28:04;;;;;;;;;;;2.50;99.90;;;;;;8390035;28;19929;-71
2023/03/15 02:32:06;;;;;;;;;;;2.50;99.90;;;;;;8382975;28;19979;-71
2023/03/15 02:36:19;;;;;;;;;;;2.40;99.90;;;;;;8378463;28;20403;-71
2023/03/15 02:40:21;;;;;;;;;;;2.40;99.90;;;;;;8395238;28;19924;-71
2023/03/15 02:44:28;;;;;;;;;;;2.30;99.90;;;;;;8395593;28;19924;-71
2023/03/15 02:48:30;;;;;;;;;;;2.30;99.90;;;;;;8387955;28;19939;-71
2023/03/15 02:52:32;;;;;;;;;;;2.30;99.90;;;;;;8388535;28;19931;-71
2023/03/15 02:56:34;;;;;;;;;;;2.20;99.90;;;;;;8372002;28;19960;-71
2023/03/15 03:00:35;;;;;;;;;;;2.20;99.90;;;;;;8380392;28;19982;-71
2023/03/15 03:04:37;;;;;;;;;;;2.20;99.90;;;;;;8375007;28;19932;-71
2023/03/15 03:08:39;;;;;;;;;;;2.10;99.90;;;;;;8389066;28;19968;-71
2023/03/15 03:12:41;;;;;;;;;;;2.20;99.90;;;;;;8394141;28;19929;-71
2023/03/15 03:16:42;;;;;;;;;;;2.20;99.90;;;;;;8384061;28;19929;-71
2023/03/15 03:20:44;;;;;;;;;;;2.20;99.90;;;;;;8396253;28;19929;-71
2023/03/15 03:24:47;;;;;;;;;;;2.10;99.90;;;;;;8390186;28;20338;-71
2023/03/15 03:28:49;;;;;;;;;;;2.10;99.90;;;;;;8372845;28;19933;-71
2023/03/15 03:32:50;;;;;;;;;;;2.00;99.90;;;;;;8388301;28;19932;-71
2023/03/15 03:36:52;;;;;;;;;;;2.00;99.90;;;;;;8388944;28;20390;-71
2023/03/15 03:40:53;;;;;;;;;;;1.90;99.90;;;;;;8383352;28;19925;-71
2023/03/15 03:44:55;;;;;;;;;;;1.80;99.90;;;;;;8384127;28;19924;-71
2023/03/15 03:48:58;;;;;;;;;;;1.70;99.90;;;;;;8398101;28;19928;-71
2023/03/15 03:52:59;;;;;;;;;;;1.60;99.90;;;;;;8391282;28;20019;-71
2023/03/15 04:07:02;;;;;;;;;;;1.50;99.90;;;;;;8385909;28;19967;-71
2023/03/15 04:11:04;;;;;;;;;;;1.40;99.90;;;;;;8385389;28;19924;-71
2023/03/15 04:15:06;;;;;;;;;;;1.40;99.90;;;;;;8382892;28;19924;-71
2023/03/15 04:19:07;;;;;;;;;;;1.40;99.90;;;;;;8394222;28;19971;-71
2023/03/15 04:23:09;;;;;;;;;;;1.40;99.90;;;;;;8376197;28;19975;-71
2023/03/15 04:27:13;;;;;;;;;;;1.30;99.90;;;;;;8381978;28;19950;-71
2023/03/15 04:31:15;;;;;;;;;;;1.20;99.90;;;;;;8386334;28;20288;-71
2023/03/15 04:35:17;;;;;;;;;;;1.10;99.90;;;;;;8396725;28;19981;-71
2023/03/15 04:39:19;;;;;;;;;;;1.10;99.90;;;;;;8361325;28;19994;-71
2023/03/15 04:43:23;;;;;;;;;;;1.20;99.90;;;;;;8375387;28;19960;-71
2023/03/15 04:47:25;;;;;;;;;;;1.20;99.90;;;;;;8367852;28;19933;-71
2023/03/15 04:51:26;;;;;;;;;;;1.20;99.90;;;;;;8385106;28;19982;-71
2023/03/15 04:55:28;;;;;;;;;;;1.10;99.90;;;;;;8384755;28;19935;-71
2023/03/15 04:59:30;;;;;;;;;;;1.10;99.90;;;;;;8386037;28;20327;-71
2023/03/15 05:03:31;;;;;;;;;;;1.10;99.90;;;;;;8384001;28;19924;-71
2023/03/15 05:07:33;;;;;;;;;;;1.00;99.90;;;;;;8388095;28;19924;-71
2023/03/15 05:11:35;;;;;;;;;;;1.00;99.90;;;;;;8382427;28;19976;-71
2023/03/15 05:26:14;;;;;;;;;;;0.90;99.90;;;;;;8380545;28;19920;-71
2023/03/15 05:30:16;;;;;;;;;;;0.90;99.90;;;;;;8380322;28;19980;-71
2023/03/15 05:34:18;;;;;;;;;;;0.90;99.90;;;;;;8380913;28;20003;-71
2023/03/15 05:38:25;;;;;;;;;;;0.80;99.90;;;;;;8355141;28;19932;-71
2023/03/15 05:42:28;;;;;;;;;;;0.80;99.90;;;;;;8335648;28;20454;-71
2023/03/15 05:46:30;;;;;;;;;;;0.80;99.90;;;;;;8346160;28;19925;-71
2023/03/15 05:50:32;;;;;;;;;;;0.90;99.90;;;;;;8343364;28;19937;-71
2023/03/15 05:54:34;;;;;;;;;;;0.90;99.90;;;;;;8371945;28;19925;-71
2023/03/15 05:58:36;;;;;;;;;;;0.90;99.90;;;;;;8342957;28;19967;-71
2023/03/15 06:02:37;;;;;;;;;;;0.90;99.90;;;;;;8345730;28;19939;-71
2023/03/15 06:06:39;;;;;;;;;;;1.00;99.90;;;;;;8352743;28;19940;-71
2023/03/15 06:10:41;;;;;;;;;;;1.00;99.90;;;;;;8348197;28;19925;-71
2023/03/15 06:14:42;;;;;;;;;;;0.90;99.90;;;;;;8350674;28;20337;-71
2023/03/15 06:18:44;;;;;;;;;;;0.90;99.90;;;;;;8360027;28;19925;-72
2023/03/15 06:22:45;;;;;;;;;;;0.90;99.90;;;;;;8366259;28;19925;-71
2023/03/15 06:26:47;;;;;;;;;;;1.00;99.90;;;;;;8352145;28;20379;-71
2023/03/15 06:30:49;;;;;;;;;;;1.00;99.90;;;;;;8354850;28;19924;-71
2023/03/15 06:34:50;;;;;;;;;;;1.00;99.90;;;;;;8364269;28;19931;-71
2023/03/15 06:38:53;;;;;;;;;;;1.00;99.90;;;;;;8395800;28;20050;-71
2023/03/15 06:42:55;;;;;;;;;;;1.10;99.90;;;;;;8379163;28;20266;-71
2023/03/15 06:46:56;;;;;;;;;;;1.20;99.90;;;;;;8379125;28;19928;-71
2023/03/15 06:50:58;;;;;;;;;;;1.30;99.90;;;;;;8390461;28;20007;-72
2023/03/15 06:55:00;;;;;;;;;;;1.40;99.90;;;;;;8384123;28;20435;-71
2023/03/15 06:59:02;;;;;;;;;;;1.50;99.90;;;;;;8389312;28;19970;-71
2023/03/15 07:03:03;;;;;;;;;;;1.60;99.90;;;;;;8387169;28;19931;-72
2023/03/15 07:07:05;;;;;;;;;;;1.80;99.90;;;;;;8379951;28;20311;-71
2023/03/15 07:11:07;;;;;;;;;;;1.90;99.90;;;;;;8385460;28;20553;-71
2023/03/15 07:15:09;;;;;;;;;;;2.00;99.90;;;;;;8378938;28;19924;-71
2023/03/15 07:19:11;;;;;;;;;;;2.10;99.90;;;;;;8360533;28;19925;-71
2023/03/15 07:23:12;;;;;;;;;;;2.20;99.90;;;;;;8390978;28;19931;-72
2023/03/15 07:27:14;;;;;;;;;;;2.30;99.90;;;;;;8388386;28;19974;-71
2023/03/15 07:31:19;;;;;;;;;;;2.30;99.90;;;;;;8369875;28;19939;-71
2023/03/15 07:35:20;;;;;;;;;;;2.40;99.90;;;;;;8387194;28;19928;-71
2023/03/15 07:39:24;;;;;;;;;;;2.50;99.90;;;;;;8370688;28;19938;-71
2023/03/15 07:43:25;;;;;;;;;;;2.60;99.90;;;;;;8364887;28;19935;-71
2023/03/15 07:47:27;;;;;;;;;;;2.80;99.90;;;;;;8385098;28;19930;-71
2023/03/15 07:51:28;;;;;;;;;;;2.90;99.90;;;;;;8388661;28;19964;-71
2023/03/15 07:55:31;;;;;;;;;;;3.10;99.90;;;;;;8388727;28;19928;-71
2023/03/15 07:59:32;;;;;;;;;;;3.20;99.90;;;;;;8385371;28;19968;-71
2023/03/15 08:03:35;;;;;;;;;;;3.40;99.90;;;;;;8393210;28;19931;-71
2023/03/15 08:07:36;;;;;;;;;;;3.50;99.90;;;;;;8371930;28;19976;-71
2023/03/15 08:11:38;;;;;;;;;;;3.60;99.90;;;;;;8383373;28;19932;-71
2023/03/15 08:15:40;;;;;;;;;;;3.80;99.90;;;;;;8382983;28;19924;-71
2023/03/15 08:19:42;;;;;;;;;;;3.90;99.90;;;;;;8388928;28;19924;-71
2023/03/15 08:23:44;;;;;;;;;;;4.00;99.90;;;;;;8384126;28;19951;-71
2023/03/15 08:27:46;;;;;;;;;;;4.10;99.90;;;;;;8378387;28;20067;-71
2023/03/15 08:31:47;;;;;;;;;;;4.30;99.90;;;;;;8382995;28;20249;-72
2023/03/15 08:35:52;;;;;;;;;;;4.40;99.90;;;;;;8384117;28;19929;-71
2023/03/15 08:39:59;;;;;;;;;;;4.50;99.90;;;;;;8377224;28;19951;-71
2023/03/15 08:44:01;;;;;;;;;;;4.60;99.90;;;;;;8392036;28;19931;-71
2023/03/15 08:48:03;;;;;;;;;;;4.80;99.90;;;;;;8379995;28;20292;-71
2023/03/15 08:52:05;;;;;;;;;;;4.90;99.90;;;;;;8393477;28;19928;-71
2023/03/15 08:56:07;;;;;;;;;;;5.10;99.90;;;;;;8380096;28;19932;-71
2023/03/15 09:00:09;;;;;;;;;;;5.20;99.90;;;;;;8387308;28;19935;-71
2023/03/15 09:04:10;;;;;;;;;;;5.40;99.90;;;;;;8371325;28;19932;-71
2023/03/15 09:08:13;;;;;;;;;;;5.50;99.90;;;;;;8369708;28;19975;-71
2023/03/15 09:12:15;;;;;;;;;;;5.60;99.90;;;;;;8387904;28;19936;-71
2023/03/15 09:16:16;;;;;;;;;;;5.80;99.90;;;;;;8381429;28;20348;-71
2023/03/15 09:20:20;;;;;;;;;;;5.90;99.90;;;;;;8378044;28;20327;-71
2023/03/15 09:24:22;;;;;;;;;;;5.90;99.90;;;;;;8372154;28;20015;-71
2023/03/15 09:28:24;;;;;;;;;;;6.10;99.90;;;;;;8373780;28;20020;-71
2023/03/15 09:32:26;;;;;;;;;;;6.20;99.90;;;;;;8381921;28;19928;-71
2023/03/15 09:36:28;;;;;;;;;;;6.30;99.90;;;;;;8377512;28;19932;-71
2023/03/15 09:40:31;;;;;;;;;;;6.40;99.90;;;;;;8356229;28;19932;-71
2023/03/15 09:44:43;;;;;;;;;;;6.60;99.90;;;;;;8360715;28;19943;-71
2023/03/15 09:49:03;;;;;;;;;;;6.70;99.90;;;;;;8369964;28;19931;-71
2023/03/15 09:53:23;;;;;;;;;;;6.90;99.90;;;;;;8373448;28;19963;-71
2023/03/15 09:57:34;;;;;;;;;;;6.90;99.90;;;;;;8363506;28;19924;-71
2023/03/15 10:01:37;;;;;;;;;;;7.10;99.90;;;;;;8367946;28;19928;-71
2023/03/15 10:05:47;;;;;;;;;;;7.30;99.90;;;;;;8367506;28;19932;-71
2023/03/15 10:09:49;;;;;;;;;;;7.70;99.90;;;;;;8368948;28;20360;-71
2023/03/15 10:13:54;;;;;;;;;;;8.40;99.90;;;;;;8379171;28;19935;-72
2023/03/15 10:17:58;;;;;;;;;;;8.70;99.90;;;;;;8379896;28;19932;-71
2023/03/15 10:22:03;;;;;;;;;;;8.90;99.90;;;;;;8373708;28;20295;-72
2023/03/15 10:26:07;;;;;;;;;;;9.10;99.90;;;;;;8378136;28;19931;-71
2023/03/15 10:30:20;;;;;;;;;;;9.30;99.90;;;;;;8362881;28;19928;-72
2023/03/15 10:34:24;;;;;;;;;;;9.40;99.90;;;;;;8376875;28;20419;-71
2023/03/15 10:38:26;;;;;;;;;;;9.60;99.90;;;;;;8371735;28;19939;-72
2023/03/15 10:42:29;;;;;;;;;;;9.90;99.90;;;;;;8369779;28;19934;-71
2023/03/15 10:46:31;;;;;;;;;;;10.00;99.90;;;;;;8389726;28;19971;-72
2023/03/15 10:50:36;;;;;;;;;;;10.00;99.90;;;;;;8387177;28;19974;-72
2023/03/15 10:54:40;;;;;;;;;;;10.00;99.90;;;;;;8392343;28;20406;-72
2023/03/15 10:58:45;;;;;;;;;;;10.30;99.90;;;;;;8386292;28;19925;-71
2023/03/15 11:03:04;;;;;;;;;;;10.80;99.90;;;;;;8390797;28;19931;-72
2023/03/15 11:07:06;;;;;;;;;;;11.10;99.90;;;;;;8385241;28;20384;-72
2023/03/15 11:11:08;;;;;;;;;;;11.30;99.90;;;;;;8376549;28;19924;-72
2023/03/15 11:15:14;;;;;;;;;;;11.50;99.90;;;;;;8385465;28;20467;-72
2023/03/15 11:19:18;;;;;;;;;;;11.60;99.90;;;;;;8387491;28;19979;-72
2023/03/15 11:23:24;;;;;;;;;;;11.70;99.90;;;;;;8388309;28;19932;-72
2023/03/15 11:27:27;;;;;;;;;;;11.60;99.90;;;;;;8384658;28;19924;-72
2023/03/15 11:31:30;;;;;;;;;;;11.90;99.90;;;;;;8384941;28;19924;-71
2023/03/15 11:35:34;;;;;;;;;;;12.40;99.90;;;;;;8383449;28;19932;-72
2023/03/15 11:39:38;;;;;;;;;;;12.90;99.90;;;;;;8381381;28;19939;-72
2023/03/15 11:43:46;;;;;;;;;;;13.20;99.90;;;;;;8365147;28;19978;-72
2023/03/15 11:47:51;;;;;;;;;;;13.50;99.90;;;;;;8352959;28;19939;-72
2023/03/15 11:51:54;;;;;;;;;;;13.70;99.90;;;;;;8358105;28;19931;-72
2023/03/15 11:55:57;;;;;;;;;;;13.30;99.90;;;;;;8358226;28;21707;-72
2023/03/15 12:00:14;;;;;;;;;;;13.20;99.90;;;;;;8362733;28;19936;-72
2023/03/15 12:04:37;;;;;;;;;;;13.50;99.90;;;;;;8352357;28;19928;-72
2023/03/15 12:08:50;;;;;;;;;;;13.90;99.90;;;;;;8357210;28;19935;-72
2023/03/15 12:13:04;;;;;;;;;;;14.30;99.90;;;;;;8352879;28;19928;-72
2023/03/15 12:17:20;;;;;;;;;;;14.60;99.90;;;;;;8352148;28;19938;-72
2023/03/15 12:21:30;;;;;;;;;;;14.50;99.90;;;;;;8369297;28;20355;-72
2023/03/15 12:25:35;;;;;;;;;;;14.40;99.90;;;;;;8355516;28;20230;-72
2023/03/15 12:29:57;;;;;;;;;;;14.50;99.90;;;;;;8352574;28;19931;-72
2023/03/15 12:34:02;;;;;;;;;;;14.70;99.90;;;;;;8340569;28;21132;-72
2023/03/15 12:38:10;;;;;;;;;;;14.40;99.90;;;;;;8363307;28;19932;-72
2023/03/15 12:42:13;;;;;;;;;;;14.30;99.90;;;;;;8347587;28;19929;-72
2023/03/15 12:46:33;;;;;;;;;;;14.40;99.90;;;;;;8346330;28;19931;-72
2023/03/15 12:50:44;;;;;;;;;;;14.90;99.90;;;;;;8332864;28;19929;-72
2023/03/15 12:54:46;;;;;;;;;;;14.80;96.30;;;;;;8353313;28;19929;-72
2023/03/15 12:58:51;;;;;;;;;;;14.20;99.90;;;;;;8355186;28;19954;-72
2023/03/15 13:02:53;;;;;;;;;;;14.00;99.90;;;;;;8352649;28;19933;-72
2023/03/15 13:07:01;;;;;;;;;;;13.60;99.90;;;;;;8358787;28;19982;-72
2023/03/15 13:11:24;;;;;;;;;;;13.10;99.90;;;;;;8356590;28;19925;-72
2023/03/15 13:15:33;;;;;;;;;;;12.80;99.90;;;;;;8319295;28;19929;-72
2023/03/15 13:19:40;;;;;;;;;;;12.40;96.30;;;;;;8352719;28;20342;-72
2023/03/15 13:23:43;;;;;;;;;;;12.10;99.90;;;;;;8361534;28;19947;-72
2023/03/15 13:27:53;;;;;;;;;;;12.00;99.90;;;;;;8358757;28;19939;-72
2023/03/15 13:31:59;;;;;;;;;;;12.00;99.90;;;;;;8361276;28;19931;-72
2023/03/15 13:36:03;;;;;;;;;;;12.10;99.90;;;;;;8363081;28;20015;-72
2023/03/15 13:40:10;;;;;;;;;;;12.20;99.90;;;;;;8343256;28;19932;-75
2023/03/15 13:44:19;;;;;;;;;;;12.30;99.80;;;;;;8374382;28;20351;-72
2023/03/15 13:48:22;;;;;;;;;;;12.30;99.90;;;;;;8358135;28;19943;-72
2023/03/15 13:52:23;;;;;;;;;;;12.40;98.10;;;;;;8364085;28;19933;-72
2023/03/15 13:56:27;;;;;;;;;;;12.40;97.70;;;;;;8372822;28;19983;-72
2023/03/15 14:00:33;;;;;;;;;;;12.40;97.00;;;;;;8359578;28;20301;-73
2023/03/15 14:04:36;;;;;;;;;;;12.40;92.80;;;;;;8359241;28;20261;-72
2023/03/15 14:08:39;;;;;;;;;;;12.40;98.80;;;;;;8364224;28;19928;-72
2023/03/15 14:12:40;;;;;;;;;;;12.30;96.70;;;;;;8359976;28;20018;-72
2023/03/15 14:16:44;;;;;;;;;;;12.30;96.60;;;;;;8359400;28;20428;-74
2023/03/15 14:21:04;;;;;;;;;;;12.30;95.70;;;;;;8347075;28;19981;-72
2023/03/15 14:25:18;;;;;;;;;;;12.50;98.10;;;;;;8356352;28;20319;-72
2023/03/15 14:29:22;;;;;;;;;;;12.70;92.10;;;;;;8357211;28;19925;-72
2023/03/15 14:33:33;;;;;;;;;;;13.50;96.10;;;;;;8359036;28;20380;-73
2023/03/15 14:37:40;;;;;;;;;;;14.50;99.90;;;;;;8358728;28;20016;-73
2023/03/15 14:41:41;;;;;;;;;;;15.40;99.90;;;;;;8359763;28;20031;-73
2023/03/15 14:45:47;;;;;;;;;;;15.60;95.80;;;;;;8360313;28;20027;-73
2023/03/15 14:49:49;;;;;;;;;;;15.40;92.00;;;;;;8358964;28;19956;-73
2023/03/15 14:53:52;;;;;;;;;;;15.10;88.70;;;;;;8365513;28;19932;-73
2023/03/15 14:57:54;;;;;;;;;;;14.60;94.30;;;;;;8371330;28;19959;-73
2023/03/15 15:01:57;;;;;;;;;;;14.40;96.90;;;;;;8358679;28;19956;-72
2023/03/15 15:05:59;;;;;;;;;;;14.30;99.90;;;;;;8360897;28;20024;-73
2023/03/15 15:10:01;;;;;;;;;;;14.30;95.00;;;;;;8356446;28;19928;-73
2023/03/15 15:14:02;;;;;;;;;;;14.20;94.10;;;;;;8363143;28;20024;-72
2023/03/15 15:18:04;;;;;;;;;;;13.90;90.20;;;;;;8357552;28;19932;-73
2023/03/15 15:22:07;;;;;;;;;;;13.70;91.30;;;;;;8354502;28;19929;-73
2023/03/15 15:26:13;;;;;;;;;;;13.50;84.10;;;;;;8357496;28;19955;-73
2023/03/15 15:30:16;;;;;;;;;;;13.10;89.40;;;;;;8356000;28;19940;-72
2023/03/15 15:34:18;;;;;;;;;;;12.90;87.00;;;;;;8339484;28;19924;-73
2023/03/15 15:38:31;;;;;;;;;;;12.50;90.80;;;;;;8356935;28;19925;-73
2023/03/15 15:42:32;;;;;;;;;;;12.30;90.00;;;;;;8348860;28;20406;-73
2023/03/15 15:46:34;;;;;;;;;;;12.20;90.20;;;;;;8358053;28;20505;-73
2023/03/15 15:50:36;;;;;;;;;;;12.20;90.90;;;;;;8360273;28;20027;-73
2023/03/15 15:54:37;;;;;;;;;;;12.10;88.80;;;;;;8351345;28;20358;-73
2023/03/15 15:58:40;;;;;;;;;;;12.00;94.80;;;;;;8356598;28;19975;-73
2023/03/15 16:02:42;;;;;;;;;;;12.00;93.00;;;;;;8354074;28;19925;-73
2023/03/15 16:06:51;;;;;;;;;;;11.80;93.40;;;;;;8356499;28;19925;-73
2023/03/15 16:10:53;;;;;;;;;;;11.80;95.50;;;;;;8357346;28;19999;-72
2023/03/15 16:14:54;;;;;;;;;;;11.70;90.20;;;;;;8360413;28;19934;-73
2023/03/15 16:18:56;;;;;;;;;;;11.60;92.30;;;;;;8358529;28;19924;-73
2023/03/15 16:22:59;;;;;;;;;;;11.70;94.00;;;;;;8354082;28;20370;-73
2023/03/15 16:27:02;;;;;;;;;;;11.70;95.00;;;;;;8356108;28;20380;-73
2023/03/15 16:31:03;;;;;;;;;;;11.70;95.70;;;;;;8349395;28;19958;-73
2023/03/15 16:35:06;;;;;;;;;;;11.70;94.60;;;;;;8347959;28;19940;-73
2023/03/15 16:39:12;;;;;;;;;;;11.60;95.00;;;;;;8338602;28;19978;-73
2023/03/15 16:43:13;;;;;;;;;;;11.30;95.60;;;;;;8353271;28;20296;-73
2023/03/15 16:47:15;;;;;;;;;;;11.20;96.70;;;;;;8355868;28;19971;-73
2023/03/15 16:51:17;;;;;;;;;;;11.10;97.80;;;;;;8344876;28;19925;-73
2023/03/15 16:55:22;;;;;;;;;;;11.00;97.10;;;;;;8351396;28;19924;-73
2023/03/15 16:59:24;;;;;;;;;;;10.90;97.80;;;;;;8354951;28;20289;-73
2023/03/15 17:03:28;;;;;;;;;;;10.80;96.50;;;;;;8342422;28;20370;-73
2023/03/15 17:07:34;;;;;;;;;;;10.60;97.80;;;;;;8357040;28;19972;-73
2023/03/15 17:11:37;;;;;;;;;;;10.50;98.40;;;;;;8363100;28;19928;-73
2023/03/15 17:15:39;;;;;;;;;;;10.40;98.10;;;;;;8369473;28;20037;-73
2023/03/15 17:19:40;;;;;;;;;;;10.30;98.40;;;;;;8349783;28;20209;-73
2023/03/15 17:23:42;;;;;;;;;;;10.10;98.80;;;;;;8354255;28;20376;-73
2023/03/15 17:27:45;;;;;;;;;;;10.00;99.10;;;;;;8351468;28;19929;-73
2023/03/15 17:31:47;;;;;;;;;;;9.80;99.80;;;;;;8354626;28;20410;-73
2023/03/15 17:35:52;;;;;;;;;;;9.70;99.60;;;;;;8358205;28;24019;-73
2023/03/15 17:39:54;;;;;;;;;;;9.50;99.90;;;;;;8342941;28;20428;-73
2023/03/15 17:43:56;;;;;;;;;;;9.30;99.90;;;;;;8362600;28;19986;-73
2023/03/15 17:47:58;;;;;;;;;;;9.10;99.90;;;;;;8358875;28;19936;-73
2023/03/15 17:52:00;;;;;;;;;;;9.00;99.90;;;;;;8367244;28;19937;-73
2023/03/15 17:56:01;;;;;;;;;;;8.90;99.90;;;;;;8357957;28;20361;-73
2023/03/15 18:00:03;;;;;;;;;;;8.80;99.90;;;;;;8352028;28;20907;-73
2023/03/15 18:04:09;;;;;;;;;;;8.70;99.90;;;;;;8357326;28;19929;-73
2023/03/15 18:08:12;;;;;;;;;;;8.60;99.90;;;;;;8354547;28;21333;-73
2023/03/15 18:12:13;;;;;;;;;;;8.50;99.90;;;;;;8345280;28;20286;-73
2023/03/15 18:16:16;;;;;;;;;;;8.40;99.90;;;;;;8360869;28;20442;-73
2023/03/15 18:20:18;;;;;;;;;;;8.30;99.90;;;;;;8350637;28;19955;-72
2023/03/15 18:24:19;;;;;;;;;;;8.30;99.90;;;;;;8337141;28;19938;-73
2023/03/15 18:28:22;;;;;;;;;;;8.10;99.90;;;;;;8374056;28;19976;-73
2023/03/15 18:32:24;;;;;;;;;;;8.00;99.90;;;;;;8356043;28;19928;-73
2023/03/15 18:36:26;;;;;;;;;;;8.00;99.90;;;;;;8354589;28;20618;-73
2023/03/15 18:50:47;;;;;;;;;;;7.80;99.90;;;;;;8354427;28;19928;-73
2023/03/15 18:54:50;;;;;;;;;;;7.70;99.90;;;;;;8357462;28;19929;-72
2023/03/15 18:58:53;;;;;;;;;;;7.60;99.90;;;;;;8355640;28;19986;-72
2023/03/15 19:02:56;;;;;;;;;;;7.60;99.90;;;;;;8359854;28;19924;-73
2023/03/15 19:06:58;;;;;;;;;;;7.60;99.90;;;;;;8333374;28;19932;-73
2023/03/15 19:11:00;;;;;;;;;;;7.60;99.90;;;;;;8342063;28;20399;-73
2023/03/15 19:15:03;;;;;;;;;;;7.60;99.90;;;;;;8362450;28;20019;-73
2023/03/15 19:19:07;;;;;;;;;;;7.70;99.90;;;;;;8342384;28;19929;-73
2023/03/15 19:23:09;;;;;;;;;;;7.70;99.90;;;;;;8350740;28;19936;-73
2023/03/15 19:27:10;;;;;;;;;;;7.70;99.90;;;;;;8349116;28;24116;-73
2023/03/15 19:31:12;;;;;;;;;;;7.70;99.90;;;;;;8359360;28;19929;-73
2023/03/15 19:35:15;;;;;;;;;;;7.70;99.90;;;;;;8357463;28;19933;-74
2023/03/15 19:39:17;;;;;;;;;;;7.70;99.90;;;;;;8351914;28;19940;-73
2023/03/15 19:43:18;;;;;;;;;;;7.70;99.90;;;;;;8344247;28;20304;-73
2023/03/15 19:47:20;;;;;;;;;;;7.60;99.90;;;;;;8354757;28;19925;-73
2023/03/15 19:51:22;;;;;;;;;;;7.60;99.90;;;;;;8359243;28;19924;-73
2023/03/15 19:55:26;;;;;;;;;;;7.60;99.90;;;;;;8359471;28;19928;-73
2023/03/15 19:59:38;;;;;;;;;;;7.60;99.90;;;;;;8354078;28;19940;-73
2023/03/15 20:03:40;;;;;;;;;;;7.50;99.90;;;;;;8345645;28;19967;-73
2023/03/15 20:07:42;;;;;;;;;;;7.50;99.90;;;;;;8356852;28;20384;-73
2023/03/15 20:11:44;;;;;;;;;;;7.50;99.90;;;;;;8339857;28;20584;-73
2023/03/15 20:15:46;;;;;;;;;;;7.50;99.90;;;;;;8363636;28;20360;-73
2023/03/15 20:19:47;;;;;;;;;;;7.40;99.90;;;;;;8367722;28;19990;-73
2023/03/15 20:23:49;;;;;;;;;;;7.30;99.90;;;;;;8358493;28;19951;-73
2023/03/15 20:27:51;;;;;;;;;;;7.20;99.90;;;;;;8354070;28;19924;-73
2023/03/15 20:31:52;;;;;;;;;;;7.10;99.90;;;;;;8354038;28;19932;-73
2023/03/15 20:35:54;;;;;;;;;;;7.00;99.90;;;;;;8355498;28;19964;-73
2023/03/15 20:39:56;;;;;;;;;;;6.80;99.90;;;;;;8339899;28;20435;-73
2023/03/15 20:43:58;;;;;;;;;;;6.70;99.90;;;;;;8354631;28;19925;-73
2023/03/15 20:47:59;;;;;;;;;;;6.60;99.90;;;;;;8351464;28;19957;-72
2023/03/15 20:52:01;;;;;;;;;;;6.50;99.90;;;;;;8361347;28;20371;-73
2023/03/15 20:56:03;;;;;;;;;;;6.50;99.90;;;;;;8369363;28;20345;-73
2023/03/15 21:00:11;;;;;;;;;;;6.50;99.90;;;;;;8360087;28;19978;-73
2023/03/15 21:04:13;;;;;;;;;;;6.50;99.90;;;;;;8358464;28;19936;-73
2023/03/15 21:08:16;;;;;;;;;;;6.50;99.90;;;;;;8361038;28;20398;-73
2023/03/15 21:12:18;;;;;;;;;;;6.60;99.90;;;;;;8356376;28;20380;-73
2023/03/15 21:16:20;;;;;;;;;;;6.60;99.90;;;;;;8364092;28;19929;-73
2023/03/15 21:20:22;;;;;;;;;;;6.70;99.90;;;;;;8362207;28;19925;-73
2023/03/15 21:24:27;;;;;;;;;;;6.70;99.90;;;;;;8365803;28;19940;-73
2023/03/15 21:28:28;;;;;;;;;;;6.70;99.90;;;;;;8376337;28;20377;-73
2023/03/15 21:32:30;;;;;;;;;;;6.70;99.90;;;;;;8360176;28;19925;-73
2023/03/15 21:36:31;;;;;;;;;;;6.80;99.90;;;;;;8360471;28;20368;-73
2023/03/15 21:40:33;;;;;;;;;;;6.80;99.90;;;;;;8361453;28;19939;-73
2023/03/15 21:44:38;;;;;;;;;;;6.80;99.90;;;;;;8344361;28;19936;-73
2023/03/15 21:48:40;;;;;;;;;;;6.80;99.90;;;;;;8364182;28;19933;-73
2023/03/15 21:52:43;;;;;;;;;;;6.70;99.90;;;;;;8365760;28;19925;-72
2023/03/15 21:56:45;;;;;;;;;;;6.70;99.90;;;;;;8364819;28;19924;-73
2023/03/15 22:00:46;;;;;;;;;;;6.70;99.90;;;;;;8380336;28;19967;-73
2023/03/15 22:04:48;;;;;;;;;;;6.70;99.90;;;;;;8383326;28;19931;-73
2023/03/15 22:08:51;;;;;;;;;;;6.60;99.90;;;;;;8385765;28;20301;-73
2023/03/15 22:12:53;;;;;;;;;;;6.60;99.90;;;;;;8390498;28;19931;-73
2023/03/15 22:16:54;;;;;;;;;;;6.50;99.90;;;;;;8394987;28;19925;-73
2023/03/15 22:20:56;;;;;;;;;;;6.40;99.90;;;;;;8387615;28;20307;-73
2023/03/15 22:24:58;;;;;;;;;;;6.40;99.90;;;;;;8388815;28;19987;-73
2023/03/15 22:28:59;;;;;;;;;;;6.40;99.90;;;;;;8397228;28;19931;-73
2023/03/15 22:33:01;;;;;;;;;;;6.30;99.90;;;;;;8395970;28;19928;-73
2023/03/15 22:37:05;;;;;;;;;;;6.30;99.90;;;;;;8392907;28;21500;-73
2023/03/15 22:41:07;;;;;;;;;;;6.30;99.90;;;;;;8362925;28;20004;-73
2023/03/15 22:45:09;;;;;;;;;;;6.20;99.90;;;;;;8385108;28;20415;-72
2023/03/15 22:49:11;;;;;;;;;;;6.20;99.90;;;;;;8382986;28;20376;-73
2023/03/15 22:53:12;;;;;;;;;;;6.20;99.90;;;;;;8384127;28;19972;-73
2023/03/15 22:57:14;;;;;;;;;;;6.20;99.90;;;;;;8388190;28;19980;-73
2023/03/15 23:01:16;;;;;;;;;;;6.20;99.90;;;;;;8388778;28;20288;-73
2023/03/15 23:05:18;;;;;;;;;;;6.20;99.90;;;;;;8388591;28;19925;-73
2023/03/15 23:09:20;;;;;;;;;;;6.20;99.90;;;;;;8390139;28;20384;-73
2023/03/15 23:13:22;;;;;;;;;;;6.20;99.90;;;;;;8365226;28;20012;-73
2023/03/15 23:17:24;;;;;;;;;;;6.20;99.90;;;;;;8391498;28;19929;-73
2023/03/15 23:21:25;;;;;;;;;;;6.10;99.90;;;;;;8389291;28;20387;-73
2023/03/15 23:25:27;;;;;;;;;;;6.10;99.90;;;;;;8390366;28;20328;-72
2023/03/15 23:29:29;;;;;;;;;;;6.10;99.90;;;;;;8382578;28;20402;-72
2023/03/15 23:33:33;;;;;;;;;;;6.10;99.90;;;;;;8394910;28;19924;-73
2023/03/15 23:37:34;;;;;;;;;;;6.10;99.90;;;;;;8385367;28;19924;-73
2023/03/15 23:41:36;;;;;;;;;;;6.10;99.90;;;;;;8376874;28;19939;-73
2023/03/15 23:45:38;;;;;;;;;;;6.10;99.90;;;;;;8376276;28;19924;-73
2023/03/15 23:49:41;;;;;;;;;;;6.00;99.90;;;;;;8377552;28;19983;-73
2023/03/15 23:53:43;;;;;;;;;;;6.00;99.90;;;;;;8372959;28;20387;-73
2023/03/15 23:57:44;;;;;;;;;;;6.00;99.90;;;;;;8384325;28;19967;-72
